Tofte, Minnesota
Current Conditions -  °F | °C
As of 8:33 AM on Friday 28 Nov 2014 (Local Time) from KCKC Reporting Station
Overcast Overcast  
Wind Chill: -13°   Ceiling: 5000
Heat Index: -13°   Visibility: 10mi
Dew Point: -18°   Wind: 0mph
Humidity: 67%   Direction: NA
Pressure: 30"   Gusts: NA
Location:  47.57°N, 90.84°W
Report Text: KCKC 281433Z AUTO 00000KT 10SM BKN050 OVC070 M13/M18 A3000 RMK AO2
Loading
Personal Weather Stations






























Interactive Weather Map New forecast layout! Learn more

10-Day Weather Forecast

Advertisements
Track Severe Weather on mobile